sensor_id;sensor_type;location;lat;lon;timestamp;pressure;altitude;pressure_sealevel;temperature;humidity
16613;BME280;8419;52.358;9.752;2023-03-11T00:02:46;99276.00;;;9.48;47.20
16613;BME280;8419;52.358;9.752;2023-03-11T00:05:34;99286.00;;;9.46;47.22
16613;BME280;8419;52.358;9.752;2023-03-11T00:08:22;99299.00;;;9.52;47.06
16613;BME280;8419;52.358;9.752;2023-03-11T00:11:08;99303.00;;;9.50;47.08
16613;BME280;8419;52.358;9.752;2023-03-11T00:13:53;99307.00;;;9.50;47.09
16613;BME280;8419;52.358;9.752;2023-03-11T00:16:39;99307.00;;;9.50;47.04
16613;BME280;8419;52.358;9.752;2023-03-11T00:19:25;99313.00;;;9.48;47.13
16613;BME280;8419;52.358;9.752;2023-03-11T00:22:10;99334.00;;;9.46;47.21
16613;BME280;8419;52.358;9.752;2023-03-11T00:24:55;99332.00;;;9.48;47.23
16613;BME280;8419;52.358;9.752;2023-03-11T00:27:41;99342.00;;;9.48;47.20
16613;BME280;8419;52.358;9.752;2023-03-11T00:30:27;99340.00;;;9.51;47.17
16613;BME280;8419;52.358;9.752;2023-03-11T00:33:14;99354.00;;;9.50;47.20
16613;BME280;8419;52.358;9.752;2023-03-11T00:35:59;99355.00;;;9.51;47.21
16613;BME280;8419;52.358;9.752;2023-03-11T00:38:44;99366.00;;;9.54;47.16
16613;BME280;8419;52.358;9.752;2023-03-11T00:41:29;99358.00;;;9.52;47.24
16613;BME280;8419;52.358;9.752;2023-03-11T00:44:14;99376.00;;;9.52;47.24
16613;BME280;8419;52.358;9.752;2023-03-11T00:46:59;99380.00;;;9.53;47.26
16613;BME280;8419;52.358;9.752;2023-03-11T00:49:45;99387.00;;;9.54;47.26
16613;BME280;8419;52.358;9.752;2023-03-11T00:52:30;99392.00;;;9.54;47.23
16613;BME280;8419;52.358;9.752;2023-03-11T00:55:18;99400.00;;;9.52;47.26
16613;BME280;8419;52.358;9.752;2023-03-11T00:58:06;99406.00;;;9.56;47.20
16613;BME280;8419;52.358;9.752;2023-03-11T01:00:52;99408.00;;;9.57;47.19
16613;BME280;8419;52.358;9.752;2023-03-11T01:03:38;99411.00;;;9.62;47.09
16613;BME280;8419;52.358;9.752;2023-03-11T01:06:24;99416.00;;;9.62;47.09
16613;BME280;8419;52.358;9.752;2023-03-11T01:09:09;99420.00;;;9.61;47.11
16613;BME280;8419;52.358;9.752;2023-03-11T01:11:55;99429.00;;;9.70;46.87
16613;BME280;8419;52.358;9.752;2023-03-11T01:14:40;99442.00;;;9.71;46.84
16613;BME280;8419;52.358;9.752;2023-03-11T01:17:25;99441.00;;;9.69;46.83
16613;BME280;8419;52.358;9.752;2023-03-11T01:20:14;99441.00;;;9.63;47.03
16613;BME280;8419;52.358;9.752;2023-03-11T01:22:59;99447.00;;;9.60;47.09
16613;BME280;8419;52.358;9.752;2023-03-11T01:25:45;99455.00;;;9.60;47.02
16613;BME280;8419;52.358;9.752;2023-03-11T01:28:30;99452.00;;;9.57;47.04
16613;BME280;8419;52.358;9.752;2023-03-11T01:31:16;99459.00;;;9.56;47.10
16613;BME280;8419;52.358;9.752;2023-03-11T01:34:01;99470.00;;;9.59;46.95
16613;BME280;8419;52.358;9.752;2023-03-11T01:36:46;99482.00;;;9.59;46.95
16613;BME280;8419;52.358;9.752;2023-03-11T01:39:31;99479.00;;;9.57;47.00
16613;BME280;8419;52.358;9.752;2023-03-11T01:42:17;99487.00;;;9.57;46.97
16613;BME280;8419;52.358;9.752;2023-03-11T01:45:13;99497.00;;;9.57;46.97
16613;BME280;8419;52.358;9.752;2023-03-11T01:48:10;99501.00;;;9.59;46.93
16613;BME280;8419;52.358;9.752;2023-03-11T01:50:56;99497.00;;;9.57;46.93
16613;BME280;8419;52.358;9.752;2023-03-11T01:53:42;99502.00;;;9.60;46.87
16613;BME280;8419;52.358;9.752;2023-03-11T01:56:27;99508.00;;;9.60;46.89
16613;BME280;8419;52.358;9.752;2023-03-11T01:59:16;99513.00;;;9.60;46.94
16613;BME280;8419;52.358;9.752;2023-03-11T02:02:10;99522.00;;;9.59;46.97
16613;BME280;8419;52.358;9.752;2023-03-11T02:05:02;99535.00;;;9.59;46.98
16613;BME280;8419;52.358;9.752;2023-03-11T02:07:49;99529.00;;;9.60;46.93
16613;BME280;8419;52.358;9.752;2023-03-11T02:10:39;99527.00;;;9.59;46.92
16613;BME280;8419;52.358;9.752;2023-03-11T02:13:26;99539.00;;;9.63;46.88
16613;BME280;8419;52.358;9.752;2023-03-11T02:16:11;99558.00;;;9.61;46.86
16613;BME280;8419;52.358;9.752;2023-03-11T02:19:03;99555.00;;;9.60;46.89
16613;BME280;8419;52.358;9.752;2023-03-11T02:21:49;99554.00;;;9.61;46.89
16613;BME280;8419;52.358;9.752;2023-03-11T02:24:39;99569.00;;;9.60;46.85
16613;BME280;8419;52.358;9.752;2023-03-11T02:27:30;99544.00;;;9.61;46.80
16613;BME280;8419;52.358;9.752;2023-03-11T02:30:18;99557.00;;;9.58;46.82
16613;BME280;8419;52.358;9.752;2023-03-11T02:33:06;99558.00;;;9.60;46.83
16613;BME280;8419;52.358;9.752;2023-03-11T02:35:52;99563.00;;;9.60;46.80
16613;BME280;8419;52.358;9.752;2023-03-11T02:38:41;99565.00;;;9.56;46.89
16613;BME280;8419;52.358;9.752;2023-03-11T02:41:27;99573.00;;;9.58;46.88
16613;BME280;8419;52.358;9.752;2023-03-11T02:44:15;99573.00;;;9.58;46.83
16613;BME280;8419;52.358;9.752;2023-03-11T02:47:01;99581.00;;;9.58;46.85
16613;BME280;8419;52.358;9.752;2023-03-11T02:49:47;99582.00;;;9.56;46.87
16613;BME280;8419;52.358;9.752;2023-03-11T02:52:35;99585.00;;;9.35;47.38
16613;BME280;8419;52.358;9.752;2023-03-11T02:55:21;99591.00;;;9.33;47.52
16613;BME280;8419;52.358;9.752;2023-03-11T02:58:07;99590.00;;;9.34;47.50
16613;BME280;8419;52.358;9.752;2023-03-11T03:00:52;99597.00;;;9.36;47.50
16613;BME280;8419;52.358;9.752;2023-03-11T03:03:37;99597.00;;;9.36;47.52
16613;BME280;8419;52.358;9.752;2023-03-11T03:06:24;99611.00;;;9.33;47.59
16613;BME280;8419;52.358;9.752;2023-03-11T03:09:10;99619.00;;;9.35;47.62
16613;BME280;8419;52.358;9.752;2023-03-11T03:11:55;99622.00;;;9.37;47.66
16613;BME280;8419;52.358;9.752;2023-03-11T03:14:40;99630.00;;;9.34;47.67
16613;BME280;8419;52.358;9.752;2023-03-11T03:17:27;99627.00;;;9.34;47.60
16613;BME280;8419;52.358;9.752;2023-03-11T03:20:14;99623.00;;;9.34;47.49
16613;BME280;8419;52.358;9.752;2023-03-11T03:22:59;99631.00;;;9.39;47.39
16613;BME280;8419;52.358;9.752;2023-03-11T03:25:45;99634.00;;;9.30;47.54
16613;BME280;8419;52.358;9.752;2023-03-11T03:28:30;99639.00;;;9.31;47.49
16613;BME280;8419;52.358;9.752;2023-03-11T03:31:18;99641.00;;;9.31;47.41
16613;BME280;8419;52.358;9.752;2023-03-11T03:34:04;99650.00;;;9.32;47.39
16613;BME280;8419;52.358;9.752;2023-03-11T03:36:49;99651.00;;;9.32;47.38
16613;BME280;8419;52.358;9.752;2023-03-11T03:39:35;99660.00;;;9.34;47.29
16613;BME280;8419;52.358;9.752;2023-03-11T03:42:20;99663.00;;;9.47;47.01
16613;BME280;8419;52.358;9.752;2023-03-11T03:45:09;99661.00;;;9.48;47.00
16613;BME280;8419;52.358;9.752;2023-03-11T03:47:54;99667.00;;;9.45;46.95
16613;BME280;8419;52.358;9.752;2023-03-11T03:50:41;99679.00;;;9.43;46.97
16613;BME280;8419;52.358;9.752;2023-03-11T03:53:27;99687.00;;;9.36;47.17
16613;BME280;8419;52.358;9.752;2023-03-11T03:56:13;99691.00;;;9.44;47.08
16613;BME280;8419;52.358;9.752;2023-03-11T03:59:00;99701.00;;;9.47;46.88
16613;BME280;8419;52.358;9.752;2023-03-11T04:01:45;99706.00;;;9.43;46.91
16613;BME280;8419;52.358;9.752;2023-03-11T04:04:32;99708.00;;;9.43;46.90
16613;BME280;8419;52.358;9.752;2023-03-11T04:07:17;99708.00;;;9.36;46.99
16613;BME280;8419;52.358;9.752;2023-03-11T04:10:09;99712.00;;;9.36;46.92
16613;BME280;8419;52.358;9.752;2023-03-11T04:12:54;99733.00;;;9.37;46.90
16613;BME280;8419;52.358;9.752;2023-03-11T04:15:40;99735.00;;;9.35;46.96
16613;BME280;8419;52.358;9.752;2023-03-11T04:18:26;99728.00;;;9.40;46.80
16613;BME280;8419;52.358;9.752;2023-03-11T04:21:12;99727.00;;;9.41;46.80
16613;BME280;8419;52.358;9.752;2023-03-11T04:23:58;99739.00;;;9.40;46.85
16613;BME280;8419;52.358;9.752;2023-03-11T04:26:44;99736.00;;;9.40;46.89
16613;BME280;8419;52.358;9.752;2023-03-11T04:29:31;99739.00;;;9.37;46.90
16613;BME280;8419;52.358;9.752;2023-03-11T04:32:17;99735.00;;;9.38;46.84
16613;BME280;8419;52.358;9.752;2023-03-11T04:35:06;99746.00;;;9.40;46.74
16613;BME280;8419;52.358;9.752;2023-03-11T04:37:54;99733.00;;;9.37;46.78
16613;BME280;8419;52.358;9.752;2023-03-11T04:40:39;99736.00;;;9.39;46.67
16613;BME280;8419;52.358;9.752;2023-03-11T04:43:25;99738.00;;;9.43;46.53
16613;BME280;8419;52.358;9.752;2023-03-11T04:46:11;99739.00;;;9.37;46.52
16613;BME280;8419;52.358;9.752;2023-03-11T04:48:57;99739.00;;;9.36;46.46
16613;BME280;8419;52.358;9.752;2023-03-11T04:51:43;99751.00;;;9.29;46.51
16613;BME280;8419;52.358;9.752;2023-03-11T04:54:30;99760.00;;;9.31;46.39
16613;BME280;8419;52.358;9.752;2023-03-11T04:57:15;99773.00;;;9.30;46.35
16613;BME280;8419;52.358;9.752;2023-03-11T05:00:00;99779.00;;;9.27;46.31
16613;BME280;8419;52.358;9.752;2023-03-11T05:02:46;99778.00;;;9.28;46.19
16613;BME280;8419;52.358;9.752;2023-03-11T05:05:31;99780.00;;;9.27;46.17
16613;BME280;8419;52.358;9.752;2023-03-11T05:08:17;99785.00;;;9.24;46.22
16613;BME280;8419;52.358;9.752;2023-03-11T05:11:02;99790.00;;;9.27;46.10
16613;BME280;8419;52.358;9.752;2023-03-11T05:13:47;99789.00;;;9.33;46.04
16613;BME280;8419;52.358;9.752;2023-03-11T05:16:34;99810.00;;;9.36;46.03
16613;BME280;8419;52.358;9.752;2023-03-11T05:19:20;99801.00;;;9.27;46.25
16613;BME280;8419;52.358;9.752;2023-03-11T05:22:14;99819.00;;;9.27;46.30
16613;BME280;8419;52.358;9.752;2023-03-11T05:25:00;99812.00;;;9.28;46.20
16613;BME280;8419;52.358;9.752;2023-03-11T05:27:45;99810.00;;;9.31;46.16
16613;BME280;8419;52.358;9.752;2023-03-11T05:30:30;99811.00;;;9.29;46.21
16613;BME280;8419;52.358;9.752;2023-03-11T05:33:16;99815.00;;;9.28;46.24
16613;BME280;8419;52.358;9.752;2023-03-11T05:36:11;99819.00;;;9.26;46.32
16613;BME280;8419;52.358;9.752;2023-03-11T05:38:57;99821.00;;;9.32;46.04
16613;BME280;8419;52.358;9.752;2023-03-11T05:41:43;99834.00;;;9.35;46.00
16613;BME280;8419;52.358;9.752;2023-03-11T05:44:28;99841.00;;;9.35;46.07
16613;BME280;8419;52.358;9.752;2023-03-11T05:47:13;99834.00;;;9.36;46.05
16613;BME280;8419;52.358;9.752;2023-03-11T05:50:00;99846.00;;;9.41;45.98
16613;BME280;8419;52.358;9.752;2023-03-11T05:52:46;99854.00;;;9.35;46.13
16613;BME280;8419;52.358;9.752;2023-03-11T05:55:31;99859.00;;;9.37;46.15
16613;BME280;8419;52.358;9.752;2023-03-11T05:58:17;99857.00;;;9.39;46.13
16613;BME280;8419;52.358;9.752;2023-03-11T06:01:07;99850.00;;;9.39;46.09
16613;BME280;8419;52.358;9.752;2023-03-11T06:03:54;99861.00;;;9.41;45.93
16613;BME280;8419;52.358;9.752;2023-03-11T06:06:41;99860.00;;;9.47;45.85
16613;BME280;8419;52.358;9.752;2023-03-11T06:09:26;99874.00;;;9.36;46.03
16613;BME280;8419;52.358;9.752;2023-03-11T06:12:12;99877.00;;;9.43;45.85
16613;BME280;8419;52.358;9.752;2023-03-11T06:14:58;99888.00;;;9.53;45.68
16613;BME280;8419;52.358;9.752;2023-03-11T06:17:43;99878.00;;;9.47;45.77
16613;BME280;8419;52.358;9.752;2023-03-11T06:20:28;99882.00;;;9.46;45.72
16613;BME280;8419;52.358;9.752;2023-03-11T06:23:14;99890.00;;;9.43;45.56
16613;BME280;8419;52.358;9.752;2023-03-11T06:26:02;99896.00;;;9.43;45.57
16613;BME280;8419;52.358;9.752;2023-03-11T06:28:49;99907.00;;;9.47;45.45
16613;BME280;8419;52.358;9.752;2023-03-11T06:31:35;99905.00;;;9.49;45.26
16613;BME280;8419;52.358;9.752;2023-03-11T06:34:21;99912.00;;;9.50;45.22
16613;BME280;8419;52.358;9.752;2023-03-11T06:37:07;99916.00;;;9.49;45.25
16613;BME280;8419;52.358;9.752;2023-03-11T06:39:53;99918.00;;;9.50;45.23
16613;BME280;8419;52.358;9.752;2023-03-11T06:42:39;99929.00;;;9.61;45.01
16613;BME280;8419;52.358;9.752;2023-03-11T06:45:24;99932.00;;;9.57;44.93
16613;BME280;8419;52.358;9.752;2023-03-11T06:48:10;99933.00;;;9.62;44.90
16613;BME280;8419;52.358;9.752;2023-03-11T06:50:56;99936.00;;;9.56;45.13
16613;BME280;8419;52.358;9.752;2023-03-11T06:53:42;99945.00;;;9.60;45.12
16613;BME280;8419;52.358;9.752;2023-03-11T06:56:27;99945.00;;;9.60;45.08
16613;BME280;8419;52.358;9.752;2023-03-11T06:59:14;99949.00;;;9.62;45.00
16613;BME280;8419;52.358;9.752;2023-03-11T07:01:59;99965.00;;;9.63;44.98
16613;BME280;8419;52.358;9.752;2023-03-11T07:04:49;99970.00;;;9.62;44.92
16613;BME280;8419;52.358;9.752;2023-03-11T07:07:34;99964.00;;;9.68;44.76
16613;BME280;8419;52.358;9.752;2023-03-11T07:10:20;99983.00;;;9.67;44.73
16613;BME280;8419;52.358;9.752;2023-03-11T07:13:06;99983.00;;;9.68;44.75
16613;BME280;8419;52.358;9.752;2023-03-11T07:15:59;99983.00;;;9.70;44.72
16613;BME280;8419;52.358;9.752;2023-03-11T07:18:46;99998.00;;;9.71;44.54
16613;BME280;8419;52.358;9.752;2023-03-11T07:21:32;100003.00;;;9.69;44.32
16613;BME280;8419;52.358;9.752;2023-03-11T07:24:19;100008.00;;;9.72;44.34
16613;BME280;8419;52.358;9.752;2023-03-11T07:27:05;100016.00;;;9.75;44.39
16613;BME280;8419;52.358;9.752;2023-03-11T07:29:51;100015.00;;;9.83;44.29
16613;BME280;8419;52.358;9.752;2023-03-11T07:32:36;100030.00;;;9.86;44.18
16613;BME280;8419;52.358;9.752;2023-03-11T07:35:21;100037.00;;;9.84;44.13
16613;BME280;8419;52.358;9.752;2023-03-11T07:38:06;100036.00;;;9.86;44.04
16613;BME280;8419;52.358;9.752;2023-03-11T07:40:57;100047.00;;;9.91;44.02
16613;BME280;8419;52.358;9.752;2023-03-11T07:43:43;100052.00;;;9.92;44.00
16613;BME280;8419;52.358;9.752;2023-03-11T07:46:29;100059.00;;;9.98;43.92
16613;BME280;8419;52.358;9.752;2023-03-11T07:49:16;100061.00;;;9.98;43.91
16613;BME280;8419;52.358;9.752;2023-03-11T07:52:01;100072.00;;;9.98;43.77
16613;BME280;8419;52.358;9.752;2023-03-11T07:54:49;100076.00;;;9.99;43.79
16613;BME280;8419;52.358;9.752;2023-03-11T07:57:35;100085.00;;;10.16;43.43
16613;BME280;8419;52.358;9.752;2023-03-11T08:00:21;100081.00;;;10.03;43.57
16613;BME280;8419;52.358;9.752;2023-03-11T08:03:06;100086.00;;;10.03;43.52
16613;BME280;8419;52.358;9.752;2023-03-11T08:05:52;100093.00;;;10.01;43.19
16613;BME280;8419;52.358;9.752;2023-03-11T08:08:40;100110.00;;;10.05;43.08
16613;BME280;8419;52.358;9.752;2023-03-11T08:11:26;100117.00;;;9.99;43.26
16613;BME280;8419;52.358;9.752;2023-03-11T08:14:11;100121.00;;;9.96;43.45
16613;BME280;8419;52.358;9.752;2023-03-11T08:16:56;100127.00;;;9.96;43.33
16613;BME280;8419;52.358;9.752;2023-03-11T08:19:42;100122.00;;;9.99;43.19
16613;BME280;8419;52.358;9.752;2023-03-11T08:22:28;100134.00;;;10.07;43.17
16613;BME280;8419;52.358;9.752;2023-03-11T08:25:13;100122.00;;;10.15;43.12
16613;BME280;8419;52.358;9.752;2023-03-11T08:28:08;100135.00;;;10.34;43.11
16613;BME280;8419;52.358;9.752;2023-03-11T08:30:53;100139.00;;;10.44;43.05
16613;BME280;8419;52.358;9.752;2023-03-11T08:33:39;100146.00;;;10.55;42.92
16613;BME280;8419;52.358;9.752;2023-03-11T08:36:25;100148.00;;;10.60;42.91
16613;BME280;8419;52.358;9.752;2023-03-11T08:39:10;100147.00;;;10.61;42.85
16613;BME280;8419;52.358;9.752;2023-03-11T08:41:55;100158.00;;;10.68;42.85
16613;BME280;8419;52.358;9.752;2023-03-11T08:44:44;100157.00;;;10.65;42.91
16613;BME280;8419;52.358;9.752;2023-03-11T08:47:35;100165.00;;;10.65;42.82
16613;BME280;8419;52.358;9.752;2023-03-11T08:50:22;100172.00;;;10.54;42.77
16613;BME280;8419;52.358;9.752;2023-03-11T08:53:08;100170.00;;;10.45;42.75
16613;BME280;8419;52.358;9.752;2023-03-11T08:55:56;100177.00;;;10.46;42.58
16613;BME280;8419;52.358;9.752;2023-03-11T08:58:45;100189.00;;;10.46;42.43
16613;BME280;8419;52.358;9.752;2023-03-11T09:01:31;100186.00;;;10.43;42.48
16613;BME280;8419;52.358;9.752;2023-03-11T09:04:19;100196.00;;;10.57;42.55
16613;BME280;8419;52.358;9.752;2023-03-11T09:07:04;100186.00;;;10.69;42.30
16613;BME280;8419;52.358;9.752;2023-03-11T09:09:52;100196.00;;;10.72;42.10
16613;BME280;8419;52.358;9.752;2023-03-11T09:12:38;100200.00;;;10.71;42.32
16613;BME280;8419;52.358;9.752;2023-03-11T09:15:24;100199.00;;;10.74;42.01
16613;BME280;8419;52.358;9.752;2023-03-11T09:18:14;100205.00;;;10.61;41.65
16613;BME280;8419;52.358;9.752;2023-03-11T09:21:00;100213.00;;;10.43;41.67
16613;BME280;8419;52.358;9.752;2023-03-11T09:23:45;100216.00;;;10.36;41.85
16613;BME280;8419;52.358;9.752;2023-03-11T09:26:32;100209.00;;;10.39;41.98
16613;BME280;8419;52.358;9.752;2023-03-11T09:29:17;100216.00;;;10.49;41.75
16613;BME280;8419;52.358;9.752;2023-03-11T09:32:04;100215.00;;;10.49;41.68
16613;BME280;8419;52.358;9.752;2023-03-11T09:34:50;100210.00;;;10.52;41.63
16613;BME280;8419;52.358;9.752;2023-03-11T09:37:35;100212.00;;;10.63;41.52
16613;BME280;8419;52.358;9.752;2023-03-11T09:40:22;100213.00;;;10.68;41.43
16613;BME280;8419;52.358;9.752;2023-03-11T09:43:18;100219.00;;;10.60;41.64
16613;BME280;8419;52.358;9.752;2023-03-11T09:46:23;100232.00;;;10.61;41.65
16613;BME280;8419;52.358;9.752;2023-03-11T09:49:20;100238.00;;;10.67;41.39
16613;BME280;8419;52.358;9.752;2023-03-11T09:52:11;100245.00;;;10.61;41.53
16613;BME280;8419;52.358;9.752;2023-03-11T09:55:03;100242.00;;;10.61;41.51
16613;BME280;8419;52.358;9.752;2023-03-11T09:57:50;100245.00;;;10.58;41.65
16613;BME280;8419;52.358;9.752;2023-03-11T10:00:37;100246.00;;;10.64;41.54
16613;BME280;8419;52.358;9.752;2023-03-11T10:03:34;100236.00;;;10.74;41.42
16613;BME280;8419;52.358;9.752;2023-03-11T10:06:21;100247.00;;;10.65;41.59
16613;BME280;8419;52.358;9.752;2023-03-11T10:09:24;100246.00;;;10.63;41.66
16613;BME280;8419;52.358;9.752;2023-03-11T10:12:22;100254.00;;;10.66;41.69
16613;BME280;8419;52.358;9.752;2023-03-11T10:15:26;100250.00;;;10.68;41.65
16613;BME280;8419;52.358;9.752;2023-03-11T10:18:27;100263.00;;;10.77;41.56
16613;BME280;8419;52.358;9.752;2023-03-11T10:21:22;100263.00;;;10.80;41.38
16613;BME280;8419;52.358;9.752;2023-03-11T10:24:22;100260.00;;;10.80;41.41
16613;BME280;8419;52.358;9.752;2023-03-11T10:27:16;100266.00;;;10.79;41.52
16613;BME280;8419;52.358;9.752;2023-03-11T10:30:08;100271.00;;;10.85;41.46
16613;BME280;8419;52.358;9.752;2023-03-11T10:32:58;100276.00;;;10.85;41.04
16613;BME280;8419;52.358;9.752;2023-03-11T10:35:51;100266.00;;;10.80;40.95
16613;BME280;8419;52.358;9.752;2023-03-11T10:38:40;100271.00;;;10.72;41.04
16613;BME280;8419;52.358;9.752;2023-03-11T10:41:31;100266.00;;;10.73;41.17
16613;BME280;8419;52.358;9.752;2023-03-11T10:44:23;100267.00;;;10.81;41.08
16613;BME280;8419;52.358;9.752;2023-03-11T10:47:16;100266.00;;;10.76;40.90
16613;BME280;8419;52.358;9.752;2023-03-11T10:50:02;100269.00;;;10.76;40.96
16613;BME280;8419;52.358;9.752;2023-03-11T10:53:06;100268.00;;;10.77;41.07
16613;BME280;8419;52.358;9.752;2023-03-11T10:55:54;100262.00;;;10.76;41.06
16613;BME280;8419;52.358;9.752;2023-03-11T10:58:47;100281.00;;;10.77;41.21
16613;BME280;8419;52.358;9.752;2023-03-11T11:01:33;100283.00;;;10.81;41.15
16613;BME280;8419;52.358;9.752;2023-03-11T11:04:28;100283.00;;;10.83;41.08
16613;BME280;8419;52.358;9.752;2023-03-11T11:07:31;100290.00;;;10.82;40.94
16613;BME280;8419;52.358;9.752;2023-03-11T11:10:20;100281.00;;;10.86;41.05
16613;BME280;8419;52.358;9.752;2023-03-11T11:13:18;100280.00;;;10.87;40.93
16613;BME280;8419;52.358;9.752;2023-03-11T11:16:16;100293.00;;;10.87;40.76
16613;BME280;8419;52.358;9.752;2023-03-11T11:19:07;100293.00;;;10.83;40.86
16613;BME280;8419;52.358;9.752;2023-03-11T11:21:53;100304.00;;;10.89;40.73
16613;BME280;8419;52.358;9.752;2023-03-11T11:24:43;100300.00;;;10.91;40.74
16613;BME280;8419;52.358;9.752;2023-03-11T11:27:29;100295.00;;;10.93;41.00
16613;BME280;8419;52.358;9.752;2023-03-11T11:30:18;100293.00;;;11.08;40.92
16613;BME280;8419;52.358;9.752;2023-03-11T11:33:22;100303.00;;;11.03;41.27
16613;BME280;8419;52.358;9.752;2023-03-11T11:36:13;100294.00;;;11.07;41.43
16613;BME280;8419;52.358;9.752;2023-03-11T11:39:00;100292.00;;;11.04;41.53
16613;BME280;8419;52.358;9.752;2023-03-11T11:41:49;100306.00;;;11.06;41.73
16613;BME280;8419;52.358;9.752;2023-03-11T11:44:34;100304.00;;;11.14;41.81
16613;BME280;8419;52.358;9.752;2023-03-11T11:47:22;100307.00;;;11.25;41.72
16613;BME280;8419;52.358;9.752;2023-03-11T11:50:15;100305.00;;;11.26;41.79
16613;BME280;8419;52.358;9.752;2023-03-11T11:53:10;100298.00;;;11.33;41.71
16613;BME280;8419;52.358;9.752;2023-03-11T11:55:59;100296.00;;;11.41;41.48
16613;BME280;8419;52.358;9.752;2023-03-11T11:58:45;100294.00;;;11.51;41.36
16613;BME280;8419;52.358;9.752;2023-03-11T12:01:41;100290.00;;;11.63;41.32
16613;BME280;8419;52.358;9.752;2023-03-11T12:04:55;100312.00;;;11.72;41.25
16613;BME280;8419;52.358;9.752;2023-03-11T12:08:01;100289.00;;;11.89;41.26
16613;BME280;8419;52.358;9.752;2023-03-11T12:10:52;100290.00;;;11.85;40.80
16613;BME280;8419;52.358;9.752;2023-03-11T12:13:49;100301.00;;;11.88;40.41
16613;BME280;8419;52.358;9.752;2023-03-11T12:16:41;100304.00;;;11.93;39.85
16613;BME280;8419;52.358;9.752;2023-03-11T12:19:33;100302.00;;;11.87;39.86
16613;BME280;8419;52.358;9.752;2023-03-11T12:22:41;100298.00;;;12.11;40.05
16613;BME280;8419;52.358;9.752;2023-03-11T12:25:33;100299.00;;;12.29;39.85
16613;BME280;8419;52.358;9.752;2023-03-11T12:28:26;100300.00;;;12.34;39.80
16613;BME280;8419;52.358;9.752;2023-03-11T12:31:15;100291.00;;;12.48;39.58
16613;BME280;8419;52.358;9.752;2023-03-11T12:34:02;100294.00;;;12.59;39.46
16613;BME280;8419;52.358;9.752;2023-03-11T12:36:49;100288.00;;;12.72;39.25
16613;BME280;8419;52.358;9.752;2023-03-11T12:39:36;100295.00;;;12.87;38.65
16613;BME280;8419;52.358;9.752;2023-03-11T12:42:22;100292.00;;;12.93;38.47
16613;BME280;8419;52.358;9.752;2023-03-11T12:45:47;100292.00;;;13.04;38.41
16613;BME280;8419;52.358;9.752;2023-03-11T12:48:36;100301.00;;;13.24;38.15
16613;BME280;8419;52.358;9.752;2023-03-11T12:51:39;100302.00;;;13.31;38.01
16613;BME280;8419;52.358;9.752;2023-03-11T12:54:29;100299.00;;;13.54;37.73
16613;BME280;8419;52.358;9.752;2023-03-11T12:57:32;100303.00;;;13.63;37.55
16613;BME280;8419;52.358;9.752;2023-03-11T13:00:26;100297.00;;;13.88;37.35
16613;BME280;8419;52.358;9.752;2023-03-11T13:03:32;100302.00;;;13.89;36.88
16613;BME280;8419;52.358;9.752;2023-03-11T13:06:50;100303.00;;;14.07;36.52
16613;BME280;8419;52.358;9.752;2023-03-11T13:09:40;100302.00;;;14.40;36.35
16613;BME280;8419;52.358;9.752;2023-03-11T13:12:41;100304.00;;;14.49;35.69
16613;BME280;8419;52.358;9.752;2023-03-11T13:15:30;100303.00;;;14.90;35.44
16613;BME280;8419;52.358;9.752;2023-03-11T13:18:22;100318.00;;;15.00;34.82
16613;BME280;8419;52.358;9.752;2023-03-11T13:21:38;100315.00;;;15.43;34.65
16613;BME280;8419;52.358;9.752;2023-03-11T13:24:50;100318.00;;;15.99;34.00
16613;BME280;8419;52.358;9.752;2023-03-11T13:27:40;100326.00;;;16.37;33.40
16613;BME280;8419;52.358;9.752;2023-03-11T13:30:34;100315.00;;;16.54;33.19
16613;BME280;8419;52.358;9.752;2023-03-11T13:33:32;100329.00;;;16.50;32.61
16613;BME280;8419;52.358;9.752;2023-03-11T13:36:37;100326.00;;;16.43;32.61
16613;BME280;8419;52.358;9.752;2023-03-11T13:39:48;100326.00;;;16.57;32.18
16613;BME280;8419;52.358;9.752;2023-03-11T13:42:43;100327.00;;;16.79;32.03
16613;BME280;8419;52.358;9.752;2023-03-11T13:45:31;100323.00;;;16.92;31.66
16613;BME280;8419;52.358;9.752;2023-03-11T13:48:21;100320.00;;;17.04;31.65
16613;BME280;8419;52.358;9.752;2023-03-11T13:51:15;100330.00;;;17.24;31.44
16613;BME280;8419;52.358;9.752;2023-03-11T13:54:06;100339.00;;;17.21;31.23
16613;BME280;8419;52.358;9.752;2023-03-11T13:57:01;100330.00;;;16.90;30.58
16613;BME280;8419;52.358;9.752;2023-03-11T13:59:52;100336.00;;;16.73;31.28
16613;BME280;8419;52.358;9.752;2023-03-11T14:02:44;100339.00;;;17.15;30.91
16613;BME280;8419;52.358;9.752;2023-03-11T14:05:32;100345.00;;;17.47;30.40
16613;BME280;8419;52.358;9.752;2023-03-11T14:08:22;100332.00;;;17.27;30.01
16613;BME280;8419;52.358;9.752;2023-03-11T14:11:15;100339.00;;;16.54;30.38
16613;BME280;8419;52.358;9.752;2023-03-11T14:14:03;100347.00;;;16.65;29.99
16613;BME280;8419;52.358;9.752;2023-03-11T14:17:03;100339.00;;;16.59;29.71
16613;BME280;8419;52.358;9.752;2023-03-11T14:20:06;100343.00;;;15.50;30.66
16613;BME280;8419;52.358;9.752;2023-03-11T14:22:55;100348.00;;;15.38;30.61
16613;BME280;8419;52.358;9.752;2023-03-11T14:25:43;100356.00;;;15.96;29.70
16613;BME280;8419;52.358;9.752;2023-03-11T14:28:31;100358.00;;;16.86;28.25
16613;BME280;8419;52.358;9.752;2023-03-11T14:31:24;100356.00;;;17.14;28.19
16613;BME280;8419;52.358;9.752;2023-03-11T14:34:15;100364.00;;;17.74;27.81
16613;BME280;8419;52.358;9.752;2023-03-11T14:37:01;100354.00;;;17.79;27.39
16613;BME280;8419;52.358;9.752;2023-03-11T14:39:47;100367.00;;;17.72;27.27
16613;BME280;8419;52.358;9.752;2023-03-11T14:42:35;100369.00;;;17.63;27.21
16613;BME280;8419;52.358;9.752;2023-03-11T14:45:25;100366.00;;;17.34;27.55
16613;BME280;8419;52.358;9.752;2023-03-11T14:48:19;100366.00;;;16.99;27.37
16613;BME280;8419;52.358;9.752;2023-03-11T14:51:15;100370.00;;;16.83;27.44
16613;BME280;8419;52.358;9.752;2023-03-11T14:54:07;100373.00;;;16.60;27.61
16613;BME280;8419;52.358;9.752;2023-03-11T14:56:57;100372.00;;;16.40;27.70
16613;BME280;8419;52.358;9.752;2023-03-11T14:59:47;100378.00;;;16.52;27.24
16613;BME280;8419;52.358;9.752;2023-03-11T15:02:40;100381.00;;;16.76;27.44
16613;BME280;8419;52.358;9.752;2023-03-11T15:05:34;100388.00;;;17.07;27.24
16613;BME280;8419;52.358;9.752;2023-03-11T15:08:24;100370.00;;;17.24;27.06
16613;BME280;8419;52.358;9.752;2023-03-11T15:11:29;100381.00;;;17.21;27.26